Time;durP1;ratioP1;P1;durP2;ratioP2;P2;SDS_P1;SDS_P2;PMS_P1;PMS_P2;Temp;Humidity;BMP_temperature;BMP_pressure;BME280_temperature;BME280_humidity;BME280_pressure;Samples;Min_cycle;Max_cycle;Signal;HPM_P1;HPM_P2
2022/07/31 00:01:45;;;;;;;6.53;4.25;;;22.80;99.90;;;;;;5040672;28;20017;-74
2022/07/31 00:04:11;;;;;;;5.22;4.40;;;22.80;99.90;;;;;;5043866;28;20025;-75
2022/07/31 00:06:37;;;;;;;7.97;5.18;;;22.80;99.90;;;;;;5041405;28;20556;-72
2022/07/31 00:09:03;;;;;;;8.80;5.18;;;22.80;99.90;;;;;;5045620;28;20022;-72
2022/07/31 00:11:29;;;;;;;6.95;4.72;;;22.70;99.90;;;;;;5041193;28;20371;-71
2022/07/31 00:13:55;;;;;;;9.00;4.82;;;22.70;99.90;;;;;;5038951;28;20103;-72
2022/07/31 00:16:20;;;;;;;5.22;4.40;;;22.70;99.90;;;;;;5039220;28;20036;-70
2022/07/31 00:18:46;;;;;;;5.45;4.35;;;22.60;99.90;;;;;;5041074;28;20482;-71
2022/07/31 00:21:12;;;;;;;5.25;4.75;;;22.60;99.90;;;;;;5041455;28;20597;-71
2022/07/31 00:23:39;;;;;;;7.85;5.25;;;22.60;99.90;;;;;;5042400;28;20074;-73
2022/07/31 00:26:06;;;;;;;8.13;5.28;;;22.60;99.90;;;;;;5042727;28;20017;-70
2022/07/31 00:28:32;;;;;;;7.95;4.90;;;22.60;99.90;;;;;;5041974;28;20025;-74
2022/07/31 00:30:57;;;;;;;5.65;4.65;;;22.60;99.90;;;;;;5047188;28;20116;-74
2022/07/31 00:33:23;;;;;;;5.60;5.03;;;22.60;99.90;;;;;;5045958;28;20493;-71
2022/07/31 00:35:49;;;;;;;5.93;4.35;;;22.60;99.90;;;;;;5048336;28;20063;-72
2022/07/31 00:38:15;;;;;;;10.15;5.47;;;22.60;99.90;;;;;;5040345;28;20482;-71
2022/07/31 00:40:50;;;;;;;6.35;5.22;;;22.60;99.90;;;;;;5041716;28;20040;-72
2022/07/31 00:43:19;;;;;;;5.85;5.03;;;22.50;99.90;;;;;;5043404;28;20521;-71
2022/07/31 00:45:46;;;;;;;6.97;5.53;;;22.50;99.90;;;;;;5040383;28;20059;-68
2022/07/31 00:48:12;;;;;;;9.35;5.65;;;22.50;99.90;;;;;;5042441;28;20033;-75
2022/07/31 00:50:38;;;;;;;10.88;5.88;;;22.50;99.90;;;;;;5034908;28;20129;-72
2022/07/31 00:53:04;;;;;;;5.90;5.30;;;22.40;99.90;;;;;;5038838;28;20021;-70
2022/07/31 00:55:30;;;;;;;6.68;5.78;;;22.40;99.90;;;;;;5041029;28;20017;-72
2022/07/31 00:57:56;;;;;;;11.90;6.63;;;22.40;99.90;;;;;;5041369;28;20048;-74
2022/07/31 01:00:22;;;;;;;6.95;6.13;;;22.30;99.90;;;;;;5037322;28;20029;-69
2022/07/31 01:02:48;;;;;;;7.57;6.40;;;22.40;99.90;;;;;;5038967;28;20017;-72
2022/07/31 01:05:17;;;;;;;7.30;5.60;;;22.40;99.90;;;;;;5034196;28;20032;-76
2022/07/31 01:07:44;;;;;;;8.00;5.78;;;22.40;99.90;;;;;;5043118;28;20020;-69
2022/07/31 01:10:13;;;;;;;7.78;6.63;;;22.40;99.90;;;;;;5036137;28;20259;-70
2022/07/31 01:13:03;;;;;;;6.65;5.55;;;22.40;99.90;;;;;;5042316;28;20048;-69
2022/07/31 01:15:30;;;;;;;12.85;5.53;;;22.40;99.90;;;;;;5043539;28;20028;-72
2022/07/31 01:17:57;;;;;;;8.52;5.40;;;22.40;99.90;;;;;;5042066;28;20021;-70
2022/07/31 01:20:24;;;;;;;7.78;6.07;;;22.40;99.90;;;;;;5043027;28;20033;-70
2022/07/31 01:23:29;;;;;;;6.93;5.30;;;22.40;99.90;;;;;;5045930;28;20050;-70
2022/07/31 01:26:01;;;;;;;5.68;5.18;;;22.40;99.90;;;;;;5041582;28;20047;-75
2022/07/31 01:29:03;;;;;;;11.60;6.05;;;22.40;99.90;;;;;;5045727;28;20104;-75
2022/07/31 01:31:43;;;;;;;8.57;6.15;;;22.40;99.90;;;;;;5045344;28;20448;-75
2022/07/31 01:34:24;;;;;;;11.05;5.53;;;22.30;99.90;;;;;;5044111;28;20018;-74
2022/07/31 01:37:07;;;;;;;7.95;6.35;;;22.30;99.90;;;;;;5045125;28;20501;-75
2022/07/31 01:39:35;;;;;;;5.38;4.88;;;22.30;99.90;;;;;;5047130;28;20064;-75
2022/07/31 01:42:06;;;;;;;7.25;5.28;;;22.30;99.90;;;;;;5042254;28;20025;-75
2022/07/31 01:44:39;;;;;;;4.95;4.53;;;22.30;99.90;;;;;;5044724;28;20025;-76
2022/07/31 01:47:06;;;;;;;8.48;5.82;;;22.30;99.90;;;;;;5043891;28;20025;-75
2022/07/31 01:49:34;;;;;;;6.32;5.45;;;22.20;99.90;;;;;;5048877;28;20040;-76
2022/07/31 01:52:01;;;;;;;9.75;5.50;;;22.20;99.90;;;;;;5045319;28;20486;-76
2022/07/31 01:54:28;;;;;;;7.55;5.40;;;22.20;99.90;;;;;;5037876;28;20453;-75
2022/07/31 01:56:58;;;;;;;14.18;5.10;;;22.20;99.90;;;;;;5042885;28;20386;-75
2022/07/31 01:59:25;;;;;;;7.82;5.43;;;22.20;99.90;;;;;;5046601;28;20053;-75
2022/07/31 02:01:52;;;;;;;6.80;5.20;;;22.20;99.90;;;;;;5047309;28;20036;-75
2022/07/31 02:04:20;;;;;;;6.75;5.32;;;22.20;99.90;;;;;;5047844;28;20048;-72
2022/07/31 02:06:51;;;;;;;7.70;5.00;;;22.10;99.90;;;;;;5039426;28;20030;-70
2022/07/31 02:09:20;;;;;;;8.85;5.22;;;22.10;99.90;;;;;;5020648;28;20022;-70
2022/07/31 02:11:47;;;;;;;9.63;5.30;;;22.20;99.90;;;;;;5044611;28;20059;-70
2022/07/31 02:14:15;;;;;;;5.95;5.35;;;22.10;99.90;;;;;;5046487;28;20014;-70
2022/07/31 02:16:41;;;;;;;9.85;6.35;;;22.00;99.90;;;;;;5042607;28;20470;-73
2022/07/31 02:19:07;;;;;;;6.70;6.10;;;22.00;99.90;;;;;;5040023;28;20032;-73
2022/07/31 02:21:33;;;;;;;7.10;5.68;;;21.90;99.90;;;;;;5040717;28;20484;-73
2022/07/31 02:23:59;;;;;;;9.13;5.10;;;21.90;99.90;;;;;;5042399;28;20060;-73
2022/07/31 02:26:26;;;;;;;6.45;4.68;;;21.90;99.90;;;;;;5042147;28;20032;-73
2022/07/31 02:28:52;;;;;;;6.95;5.15;;;21.90;99.90;;;;;;5037387;28;20086;-75
2022/07/31 02:31:21;;;;;;;5.75;5.22;;;21.80;99.90;;;;;;5044236;28;20079;-71
2022/07/31 02:33:48;;;;;;;7.18;5.55;;;21.90;99.90;;;;;;5038759;28;20017;-70
2022/07/31 02:36:16;;;;;;;7.25;5.15;;;21.80;99.90;;;;;;5047212;28;20028;-73
2022/07/31 02:38:44;;;;;;;8.55;6.15;;;21.80;99.90;;;;;;5045265;28;20024;-69
2022/07/31 02:41:11;;;;;;;6.97;5.18;;;21.80;99.90;;;;;;5044481;28;20033;-72
2022/07/31 02:43:38;;;;;;;7.05;5.22;;;21.80;99.90;;;;;;5045324;28;20025;-70
2022/07/31 02:46:05;;;;;;;8.88;5.65;;;21.80;99.90;;;;;;5041577;28;20480;-69
2022/07/31 02:48:31;;;;;;;8.80;6.00;;;21.70;99.90;;;;;;5045141;28;20025;-70
2022/07/31 02:50:58;;;;;;;7.20;4.30;;;21.70;99.90;;;;;;5046167;28;20613;-72
2022/07/31 02:53:24;;;;;;;5.45;4.38;;;21.60;99.90;;;;;;5045622;28;20683;-74
2022/07/31 02:55:51;;;;;;;6.88;4.82;;;21.60;99.90;;;;;;5040636;28;20112;-70
2022/07/31 02:58:16;;;;;;;7.22;5.13;;;21.60;99.90;;;;;;5040905;28;20499;-74
2022/07/31 03:00:42;;;;;;;5.63;4.60;;;21.60;99.90;;;;;;5048897;28;20037;-72
2022/07/31 03:03:08;;;;;;;6.13;4.90;;;21.60;99.90;;;;;;5050776;28;20440;-71
2022/07/31 03:05:33;;;;;;;6.20;5.60;;;21.60;99.90;;;;;;5047613;28;20030;-71
2022/07/31 03:07:59;;;;;;;6.22;4.63;;;21.50;99.90;;;;;;5044602;28;20323;-72
2022/07/31 03:10:24;;;;;;;6.03;5.05;;;21.50;99.90;;;;;;5040112;28;20033;-75
2022/07/31 03:12:53;;;;;;;5.57;5.07;;;21.50;99.90;;;;;;5045323;28;20386;-72
2022/07/31 03:15:22;;;;;;;8.05;4.82;;;21.50;99.90;;;;;;5041362;28;20119;-72
2022/07/31 03:17:48;;;;;;;5.28;4.88;;;21.40;99.90;;;;;;5043999;28;20070;-74
2022/07/31 03:20:14;;;;;;;6.30;4.55;;;21.40;99.90;;;;;;5049442;28;20048;-71
2022/07/31 03:22:41;;;;;;;5.68;5.10;;;21.50;99.90;;;;;;5046936;28;20024;-71
2022/07/31 03:25:08;;;;;;;5.97;4.65;;;21.50;99.90;;;;;;5045258;28;20029;-72
2022/07/31 03:27:34;;;;;;;5.53;5.03;;;21.50;99.90;;;;;;5044057;28;20108;-74
2022/07/31 03:30:00;;;;;;;8.75;4.80;;;21.50;99.90;;;;;;5045816;28;20029;-70
2022/07/31 03:32:25;;;;;;;7.38;4.95;;;21.50;99.90;;;;;;5044698;28;20040;-72
2022/07/31 03:34:51;;;;;;;5.78;5.05;;;21.40;99.90;;;;;;5041631;28;20037;-73
2022/07/31 03:37:17;;;;;;;7.25;4.78;;;21.50;99.90;;;;;;5041025;28;20276;-74
2022/07/31 03:39:42;;;;;;;7.22;5.65;;;21.40;99.90;;;;;;5037462;28;20044;-75
2022/07/31 03:42:09;;;;;;;7.20;5.95;;;21.40;99.90;;;;;;5040486;28;20033;-75
2022/07/31 03:44:36;;;;;;;6.97;5.45;;;21.30;99.90;;;;;;5050625;28;20029;-75
2022/07/31 03:47:02;;;;;;;8.80;5.85;;;21.30;99.90;;;;;;5047605;28;20366;-75
2022/07/31 03:49:30;;;;;;;6.50;5.10;;;21.40;99.90;;;;;;5039875;28;20120;-75
2022/07/31 03:51:56;;;;;;;8.85;5.22;;;21.30;99.90;;;;;;5042874;28;20076;-76
2022/07/31 03:54:22;;;;;;;8.60;5.32;;;21.40;99.90;;;;;;5046920;28;20455;-76
2022/07/31 03:56:49;;;;;;;5.22;4.43;;;21.40;99.90;;;;;;5038656;28;20116;-76
2022/07/31 03:59:17;;;;;;;5.47;4.30;;;21.40;99.90;;;;;;5046674;28;20021;-76
2022/07/31 04:01:43;;;;;;;7.28;4.78;;;21.40;99.90;;;;;;5047880;28;20424;-76
2022/07/31 04:04:10;;;;;;;5.28;4.47;;;21.40;99.90;;;;;;5041454;28;20049;-76
2022/07/31 04:06:35;;;;;;;7.90;4.80;;;21.30;99.90;;;;;;5038620;28;20021;-76
2022/07/31 04:09:02;;;;;;;4.47;4.10;;;21.30;99.90;;;;;;5039743;28;20162;-75
2022/07/31 04:11:28;;;;;;;6.05;4.07;;;21.30;99.90;;;;;;5045615;28;20168;-76
2022/07/31 04:13:54;;;;;;;5.43;4.30;;;21.30;99.90;;;;;;5038462;28;20032;-75
2022/07/31 04:16:19;;;;;;;4.47;4.03;;;21.30;99.90;;;;;;5044927;28;20390;-74
2022/07/31 04:18:46;;;;;;;4.72;4.03;;;21.30;99.90;;;;;;5045094;28;20041;-69
2022/07/31 04:21:12;;;;;;;4.82;4.30;;;21.30;99.90;;;;;;5041627;28;20028;-69
2022/07/31 04:23:37;;;;;;;9.75;4.18;;;21.30;99.90;;;;;;5044209;28;20017;-69
2022/07/31 04:26:03;;;;;;;6.57;4.28;;;21.30;99.90;;;;;;5044963;28;20482;-75
2022/07/31 04:28:29;;;;;;;7.53;4.07;;;21.30;99.90;;;;;;5038556;28;20462;-74
2022/07/31 04:30:55;;;;;;;5.10;4.00;;;21.30;99.90;;;;;;5040613;28;20029;-71
2022/07/31 04:33:20;;;;;;;11.13;4.35;;;21.30;99.90;;;;;;5040894;28;20018;-75
2022/07/31 04:35:46;;;;;;;7.80;3.80;;;21.30;99.90;;;;;;5050342;28;20104;-69
2022/07/31 04:38:13;;;;;;;8.18;3.65;;;21.30;99.90;;;;;;5042835;28;20128;-74
2022/07/31 04:40:38;;;;;;;4.90;3.85;;;21.30;99.90;;;;;;5047591;28;20083;-76
2022/07/31 04:43:04;;;;;;;4.68;3.20;;;21.30;99.90;;;;;;5039957;28;20029;-76
2022/07/31 04:45:30;;;;;;;5.78;3.67;;;21.40;99.90;;;;;;5043505;28;20413;-74
2022/07/31 04:47:56;;;;;;;4.05;3.33;;;21.40;99.90;;;;;;5045493;28;20032;-76
2022/07/31 04:50:21;;;;;;;5.25;3.45;;;21.40;99.90;;;;;;5051017;28;20025;-76
2022/07/31 04:52:47;;;;;;;6.85;3.35;;;21.40;99.90;;;;;;5044709;28;20062;-76
2022/07/31 04:55:13;;;;;;;4.75;3.50;;;21.40;99.90;;;;;;5042721;28;20447;-76
2022/07/31 04:57:38;;;;;;;6.38;3.58;;;21.40;99.90;;;;;;5045599;28;20490;-76
2022/07/31 05:00:05;;;;;;;3.97;3.13;;;21.50;99.90;;;;;;5047033;28;20067;-76
2022/07/31 05:02:31;;;;;;;5.10;3.72;;;21.50;99.90;;;;;;5043901;28;20374;-76
2022/07/31 05:04:57;;;;;;;4.93;3.05;;;21.40;99.90;;;;;;5044075;28;20050;-76
2022/07/31 05:07:23;;;;;;;3.33;2.83;;;21.40;99.90;;;;;;5047274;28;20147;-76
2022/07/31 05:09:48;;;;;;;4.22;2.78;;;21.50;99.90;;;;;;5046899;28;20036;-76
2022/07/31 05:12:14;;;;;;;4.95;3.90;;;21.50;99.90;;;;;;5047839;28;20355;-76
2022/07/31 05:14:40;;;;;;;3.75;3.25;;;21.40;99.90;;;;;;5051876;28;20017;-75
2022/07/31 05:17:06;;;;;;;6.68;3.17;;;21.50;99.90;;;;;;5045618;28;20033;-76
2022/07/31 05:19:31;;;;;;;4.25;3.50;;;21.40;99.90;;;;;;5044899;28;20094;-73
2022/07/31 05:21:58;;;;;;;6.35;3.30;;;21.40;99.90;;;;;;5042710;28;20028;-76
2022/07/31 05:24:24;;;;;;;3.78;3.47;;;21.40;99.90;;;;;;5044891;28;20078;-76
2022/07/31 05:26:50;;;;;;;5.78;3.85;;;21.40;99.90;;;;;;5046058;28;20029;-76
2022/07/31 05:29:15;;;;;;;5.07;3.70;;;21.20;99.90;;;;;;5044802;28;20091;-76
2022/07/31 05:31:41;;;;;;;7.68;3.30;;;21.30;99.90;;;;;;5040451;28;20091;-76
2022/07/31 05:34:06;;;;;;;6.00;3.45;;;21.40;99.90;;;;;;5039333;28;20039;-75
2022/07/31 05:36:32;;;;;;;4.18;3.88;;;21.30;99.90;;;;;;5043968;28;20036;-76
2022/07/31 05:38:58;;;;;;;5.15;3.58;;;21.30;99.90;;;;;;5047008;28;20469;-76
2022/07/31 05:41:24;;;;;;;4.90;3.45;;;21.30;99.90;;;;;;5047474;28;20069;-76
2022/07/31 05:43:49;;;;;;;4.85;3.17;;;21.40;99.90;;;;;;5049455;28;20021;-75
2022/07/31 05:46:16;;;;;;;4.60;2.90;;;21.40;99.90;;;;;;5049575;28;20384;-76
2022/07/31 05:48:43;;;;;;;3.08;2.78;;;21.40;99.90;;;;;;5044451;28;20108;-76
2022/07/31 05:51:09;;;;;;;4.35;2.80;;;21.50;99.90;;;;;;5044182;28;20030;-76
2022/07/31 05:53:36;;;;;;;5.63;3.03;;;21.40;99.90;;;;;;5045613;28;20021;-73
2022/07/31 05:56:02;;;;;;;3.60;2.97;;;21.50;99.90;;;;;;5052592;28;20051;-74
2022/07/31 05:58:27;;;;;;;5.15;3.20;;;21.40;99.90;;;;;;5049538;28;20537;-74
2022/07/31 06:00:53;;;;;;;3.03;2.67;;;21.30;99.90;;;;;;5041801;28;20057;-74
2022/07/31 06:03:23;;;;;;;6.72;2.90;;;21.40;99.90;;;;;;5043657;28;20033;-74
2022/07/31 06:05:49;;;;;;;3.65;2.50;;;21.40;99.90;;;;;;5042075;28;20025;-74
2022/07/31 06:08:15;;;;;;;4.45;2.83;;;21.30;99.90;;;;;;5050426;28;20478;-74
2022/07/31 06:10:41;;;;;;;5.22;3.10;;;21.40;99.90;;;;;;5041031;28;20044;-73
2022/07/31 06:13:07;;;;;;;4.57;2.97;;;21.50;99.90;;;;;;5036573;28;20033;-74
2022/07/31 06:15:33;;;;;;;3.83;2.75;;;21.30;99.90;;;;;;5046408;28;20025;-73
2022/07/31 06:17:59;;;;;;;4.32;2.72;;;21.50;99.90;;;;;;5043670;28;20034;-74
2022/07/31 06:20:25;;;;;;;2.75;2.20;;;21.40;99.90;;;;;;5044922;28;20045;-74
2022/07/31 06:22:51;;;;;;;2.85;2.58;;;21.50;99.90;;;;;;5050246;28;20029;-73
2022/07/31 06:25:17;;;;;;;2.85;2.50;;;21.50;99.90;;;;;;5044067;28;20028;-74
2022/07/31 06:27:42;;;;;;;4.28;2.60;;;21.50;99.90;;;;;;5048622;28;20095;-74
2022/07/31 06:30:09;;;;;;;3.55;2.40;;;21.60;99.90;;;;;;5046183;28;20381;-74
2022/07/31 06:32:35;;;;;;;4.07;2.42;;;21.70;99.90;;;;;;5047840;28;20090;-73
2022/07/31 06:35:02;;;;;;;3.10;2.65;;;21.60;99.90;;;;;;5043030;28;20029;-74
2022/07/31 06:37:28;;;;;;;4.07;2.60;;;21.70;99.90;;;;;;5047660;28;20036;-74
2022/07/31 06:39:54;;;;;;;4.38;2.58;;;21.80;99.90;;;;;;5039486;28;20026;-74
2022/07/31 06:42:20;;;;;;;3.75;2.47;;;21.70;99.90;;;;;;5047912;28;20437;-74
2022/07/31 06:44:46;;;;;;;5.20;2.97;;;21.80;99.90;;;;;;5040910;28;20112;-74
2022/07/31 06:47:12;;;;;;;4.47;3.40;;;21.70;99.90;;;;;;5039545;28;20112;-73
2022/07/31 06:49:38;;;;;;;4.70;3.65;;;21.70;99.90;;;;;;5045404;28;20025;-70
2022/07/31 06:52:04;;;;;;;4.82;2.85;;;21.60;99.90;;;;;;5044151;28;20626;-70
2022/07/31 06:54:30;;;;;;;4.85;3.28;;;21.80;99.90;;;;;;5042107;28;20436;-69
2022/07/31 06:56:55;;;;;;;5.07;3.58;;;21.90;99.90;;;;;;5045552;28;20519;-73
2022/07/31 06:59:21;;;;;;;4.47;3.17;;;21.80;99.90;;;;;;5049326;28;20553;-70
2022/07/31 07:01:47;;;;;;;3.55;3.33;;;21.90;99.90;;;;;;5046817;28;20041;-70
2022/07/31 07:04:12;;;;;;;5.88;3.95;;;21.90;99.90;;;;;;5040541;28;20021;-70
2022/07/31 07:06:38;;;;;;;3.53;3.22;;;22.00;99.90;;;;;;5046119;28;20029;-69
2022/07/31 07:09:04;;;;;;;4.63;3.83;;;22.00;99.90;;;;;;5041451;28;20037;-70
2022/07/31 07:11:29;;;;;;;8.02;4.05;;;22.10;99.90;;;;;;5050301;28;20177;-70
2022/07/31 07:13:55;;;;;;;4.47;3.72;;;22.00;99.90;;;;;;5037088;28;20547;-70
2022/07/31 07:16:21;;;;;;;8.25;4.13;;;22.20;99.90;;;;;;5051322;28;20096;-73
2022/07/31 07:18:46;;;;;;;5.57;3.80;;;22.30;99.90;;;;;;5048072;28;20034;-70
2022/07/31 07:21:12;;;;;;;5.85;4.03;;;22.30;99.90;;;;;;5042811;28;20490;-73
2022/07/31 07:23:38;;;;;;;6.05;4.50;;;22.20;99.90;;;;;;5045282;28;20059;-73
2022/07/31 07:26:04;;;;;;;4.43;4.03;;;22.20;99.90;;;;;;5037529;28;20040;-69
2022/07/31 07:28:30;;;;;;;5.55;4.45;;;22.30;99.90;;;;;;5053241;28;20425;-73
2022/07/31 07:30:56;;;;;;;4.75;4.25;;;22.50;99.90;;;;;;5038835;28;20543;-72
2022/07/31 07:33:21;;;;;;;5.93;4.20;;;22.60;99.90;;;;;;5047824;28;20370;-73
2022/07/31 07:35:50;;;;;;;5.65;4.07;;;22.60;99.90;;;;;;5043272;28;20033;-72
2022/07/31 07:38:15;;;;;;;4.45;4.05;;;22.60;99.90;;;;;;5038266;28;20028;-73
2022/07/31 07:40:41;;;;;;;9.93;4.57;;;22.70;99.90;;;;;;5042134;28;20478;-70
2022/07/31 07:43:08;;;;;;;6.03;4.68;;;22.60;99.90;;;;;;5039734;28;20025;-73
2022/07/31 07:45:33;;;;;;;5.63;4.97;;;22.60;99.90;;;;;;5042787;28;20029;-71
2022/07/31 07:47:59;;;;;;;6.43;4.07;;;22.70;99.90;;;;;;5042296;28;20444;-71
2022/07/31 07:50:25;;;;;;;6.05;5.40;;;22.60;99.90;;;;;;5042976;28;20088;-70
2022/07/31 07:52:50;;;;;;;5.55;4.40;;;22.60;99.90;;;;;;5043017;28;20470;-73
2022/07/31 07:55:16;;;;;;;5.72;4.88;;;22.70;99.90;;;;;;5046141;28;20055;-71
2022/07/31 07:57:44;;;;;;;4.47;3.75;;;22.70;99.90;;;;;;5048007;28;20075;-71
2022/07/31 08:00:11;;;;;;;7.32;4.25;;;22.80;99.90;;;;;;5047433;28;20049;-70
2022/07/31 08:02:37;;;;;;;4.30;4.00;;;22.90;99.90;;;;;;5047487;28;20028;-71
2022/07/31 08:05:05;;;;;;;5.93;4.30;;;22.90;99.90;;;;;;5043970;28;20083;-71
2022/07/31 08:07:33;;;;;;;5.00;4.55;;;23.00;99.90;;;;;;5044603;28;20373;-72
2022/07/31 08:09:59;;;;;;;4.82;4.35;;;23.10;99.90;;;;;;5042228;28;20112;-71
2022/07/31 08:12:26;;;;;;;4.72;4.10;;;23.20;99.90;;;;;;5035502;28;20096;-72
2022/07/31 08:14:52;;;;;;;5.10;4.60;;;23.40;99.90;;;;;;5042663;28;20098;-73
2022/07/31 08:17:18;;;;;;;5.20;4.57;;;23.50;99.90;;;;;;5036544;28;20033;-73
2022/07/31 08:19:45;;;;;;;4.50;4.20;;;23.50;99.90;;;;;;5046048;28;20037;-72
2022/07/31 08:22:11;;;;;;;7.57;4.50;;;23.40;99.90;;;;;;5042458;28;20398;-72
2022/07/31 08:24:37;;;;;;;4.50;4.10;;;23.60;99.90;;;;;;5040618;28;20032;-72
2022/07/31 08:29:47;;;;;;;4.25;3.80;;;23.50;99.90;;;;;;5043204;28;20393;-72
2022/07/31 08:32:13;;;;;;;5.50;4.80;;;23.40;99.90;;;;;;5043259;28;20021;-72
2022/07/31 08:34:39;;;;;;;4.60;4.13;;;23.40;99.90;;;;;;5043767;28;20501;-73
2022/07/31 08:37:05;;;;;;;4.57;4.25;;;23.50;99.90;;;;;;5037730;28;20541;-71
2022/07/31 08:39:32;;;;;;;7.72;5.13;;;23.30;99.90;;;;;;5036376;28;20032;-73
2022/07/31 08:42:02;;;;;;;8.07;5.07;;;23.40;99.90;;;;;;5042226;28;20286;-72
2022/07/31 08:44:28;;;;;;;4.22;3.78;;;23.50;99.90;;;;;;5047828;28;20016;-70
2022/07/31 08:46:56;;;;;;;9.57;5.13;;;23.60;99.90;;;;;;5039981;28;20109;-72
2022/07/31 08:49:24;;;;;;;7.93;4.97;;;23.50;99.90;;;;;;5047497;28;20029;-72
2022/07/31 08:51:50;;;;;;;4.57;4.00;;;23.50;99.90;;;;;;5036179;28;20033;-71
2022/07/31 08:54:18;;;;;;;5.45;4.57;;;23.50;99.90;;;;;;5041842;28;20033;-71
2022/07/31 08:56:45;;;;;;;4.55;3.72;;;23.60;99.90;;;;;;5037303;28;20474;-71
2022/07/31 08:59:10;;;;;;;7.28;4.38;;;23.80;99.90;;;;;;5041927;28;20072;-70
2022/07/31 09:01:36;;;;;;;6.13;3.92;;;23.70;99.90;;;;;;5040888;28;20037;-73
2022/07/31 09:04:02;;;;;;;4.45;4.05;;;23.70;99.90;;;;;;5048010;28;20104;-74
2022/07/31 09:06:28;;;;;;;5.53;4.45;;;23.70;99.90;;;;;;5040388;28;20021;-74
2022/07/31 09:08:56;;;;;;;4.22;3.90;;;23.60;99.90;;;;;;5041938;28;20108;-73
2022/07/31 09:11:22;;;;;;;4.43;4.03;;;23.50;99.90;;;;;;5044309;28;20033;-76
2022/07/31 09:13:53;;;;;;;8.18;3.78;;;23.80;99.90;;;;;;5044613;28;20421;-74
2022/07/31 09:16:19;;;;;;;4.45;3.65;;;23.90;99.90;;;;;;5039642;28;20036;-74
2022/07/31 09:18:55;;;;;;;3.97;3.15;;;24.00;99.90;;;;;;5037067;28;20021;-71
2022/07/31 09:21:21;;;;;;;6.13;3.58;;;24.00;99.90;;;;;;5041092;28;20040;-72
2022/07/31 09:23:47;;;;;;;4.88;3.45;;;24.10;99.90;;;;;;5039655;28;20022;-75
2022/07/31 09:26:14;;;;;;;3.88;3.55;;;24.10;99.90;;;;;;5039271;28;20041;-70
2022/07/31 09:28:50;;;;;;;3.55;3.25;;;24.20;99.90;;;;;;5040511;28;20049;-72
2022/07/31 09:31:15;;;;;;;4.25;3.42;;;24.30;99.90;;;;;;5041003;28;20120;-72
2022/07/31 09:33:45;;;;;;;7.55;4.47;;;24.40;99.90;;;;;;5041611;28;20083;-73
2022/07/31 09:36:12;;;;;;;5.45;3.90;;;24.50;99.90;;;;;;5046197;28;20103;-72
2022/07/31 09:38:39;;;;;;;3.72;3.40;;;24.50;99.90;;;;;;5038557;28;20029;-75
2022/07/31 09:41:12;;;;;;;4.50;3.95;;;24.50;99.90;;;;;;5046990;28;20044;-73
2022/07/31 09:43:38;;;;;;;4.07;3.67;;;24.50;99.90;;;;;;5044095;28;20464;-72
2022/07/31 09:46:05;;;;;;;5.28;4.10;;;24.60;99.90;;;;;;5042200;28;20029;-74
2022/07/31 09:48:31;;;;;;;6.03;3.80;;;24.70;99.90;;;;;;5041506;28;20032;-73
2022/07/31 09:51:02;;;;;;;4.82;4.20;;;24.70;99.90;;;;;;5046258;28;20033;-73
2022/07/31 09:53:44;;;;;;;10.15;4.45;;;24.70;99.90;;;;;;5047023;28;20369;-74
2022/07/31 09:56:11;;;;;;;5.07;4.57;;;24.80;99.90;;;;;;5037152;28;20026;-74
2022/07/31 09:58:41;;;;;;;5.88;4.38;;;24.80;99.90;;;;;;5042080;28;20482;-72
2022/07/31 10:01:11;;;;;;;4.72;4.32;;;24.80;99.90;;;;;;5043758;28;20067;-75
2022/07/31 10:03:38;;;;;;;5.10;3.83;;;25.00;99.90;;;;;;5044483;28;20474;-74
2022/07/31 10:06:07;;;;;;;6.80;4.20;;;25.50;99.90;;;;;;5040640;28;20029;-75
2022/07/31 10:08:37;;;;;;;5.80;3.92;;;25.80;99.90;;;;;;5043209;28;20025;-72
2022/07/31 10:11:04;;;;;;;6.50;3.97;;;25.80;99.90;;;;;;5041631;28;20033;-75
2022/07/31 10:13:34;;;;;;;4.50;4.00;;;25.80;99.90;;;;;;5042879;28;20029;-76
2022/07/31 10:16:01;;;;;;;6.20;3.85;;;25.90;99.90;;;;;;5042875;28;20041;-75
2022/07/31 10:18:30;;;;;;;4.65;3.85;;;25.80;99.90;;;;;;5046214;28;20430;-74
2022/07/31 10:20:58;;;;;;;6.10;3.53;;;25.80;99.90;;;;;;5045999;28;20044;-75
2022/07/31 10:23:27;;;;;;;5.28;3.47;;;25.90;99.90;;;;;;5045392;28;20028;-76
2022/07/31 10:25:59;;;;;;;8.48;3.95;;;25.90;99.90;;;;;;5038531;28;20021;-74
2022/07/31 10:28:27;;;;;;;4.20;3.80;;;25.70;99.90;;;;;;5046225;28;20033;-76
2022/07/31 10:30:53;;;;;;;4.10;3.75;;;25.70;99.90;;;;;;5037851;28;20393;-73
2022/07/31 10:33:20;;;;;;;4.00;3.70;;;25.60;99.90;;;;;;5044849;28;20029;-74
2022/07/31 10:36:03;;;;;;;4.97;3.42;;;25.60;99.90;;;;;;5039760;28;20026;-73
2022/07/31 10:38:42;;;;;;;4.57;3.78;;;25.50;99.90;;;;;;5046985;28;20025;-73
2022/07/31 10:41:15;;;;;;;4.18;3.45;;;25.70;99.90;;;;;;5042812;28;20033;-75
2022/07/31 10:43:55;;;;;;;5.38;3.65;;;25.70;99.90;;;;;;5036603;28;20029;-75
2022/07/31 10:46:33;;;;;;;4.30;3.25;;;25.80;99.90;;;;;;5039459;28;20032;-75
2022/07/31 10:48:59;;;;;;;4.45;4.15;;;25.90;99.90;;;;;;5043322;28;20064;-76
2022/07/31 10:51:25;;;;;;;5.15;3.50;;;26.00;99.90;;;;;;5042323;28;20064;-75
2022/07/31 10:54:02;;;;;;;6.40;3.40;;;26.10;99.90;;;;;;5045398;28;20083;-76
2022/07/31 10:56:41;;;;;;;3.55;3.20;;;26.10;99.90;;;;;;5043687;28;20083;-76
2022/07/31 10:59:07;;;;;;;4.05;3.40;;;26.20;99.90;;;;;;5043191;28;20061;-73
2022/07/31 11:01:32;;;;;;;4.25;3.28;;;26.20;99.90;;;;;;5040049;28;20069;-76
2022/07/31 11:04:00;;;;;;;4.07;3.33;;;26.20;99.90;;;;;;5040653;28;20030;-75
2022/07/31 11:06:40;;;;;;;3.35;3.08;;;26.20;99.90;;;;;;5044432;28;20125;-74
2022/07/31 11:09:05;;;;;;;5.35;3.38;;;26.10;99.90;;;;;;5043822;28;20079;-73
2022/07/31 11:11:33;;;;;;;3.67;3.22;;;26.10;99.90;;;;;;5035747;28;20382;-75
2022/07/31 11:13:59;;;;;;;4.10;3.55;;;26.10;99.90;;;;;;5043851;28;20040;-74
2022/07/31 11:16:25;;;;;;;3.60;3.22;;;26.20;99.90;;;;;;5041555;28;20033;-72
2022/07/31 11:19:07;;;;;;;7.30;3.85;;;26.10;99.90;;;;;;5035608;28;20117;-76
2022/07/31 11:21:34;;;;;;;4.82;4.10;;;26.20;99.90;;;;;;5036104;28;20029;-74
2022/07/31 11:24:00;;;;;;;3.97;3.63;;;26.20;99.90;;;;;;5040912;28;20574;-74
2022/07/31 11:26:26;;;;;;;4.20;3.83;;;26.20;99.90;;;;;;5036291;28;20036;-73
2022/07/31 11:28:52;;;;;;;3.85;3.47;;;26.20;99.90;;;;;;5047487;28;20029;-77
2022/07/31 11:31:17;;;;;;;3.83;3.47;;;26.30;99.90;;;;;;5040178;28;20501;-73
2022/07/31 11:33:45;;;;;;;4.72;3.40;;;26.30;99.90;;;;;;5040914;28;20229;-77
2022/07/31 11:36:17;;;;;;;3.92;3.60;;;26.50;99.90;;;;;;5043768;28;20129;-77
2022/07/31 11:38:44;;;;;;;5.13;3.40;;;26.40;99.90;;;;;;5044615;28;20017;-73
2022/07/31 11:41:10;;;;;;;4.57;3.55;;;26.50;99.90;;;;;;5036801;28;20032;-76
2022/07/31 11:43:41;;;;;;;4.68;3.55;;;26.50;99.90;;;;;;5042019;28;20056;-74
2022/07/31 11:46:07;;;;;;;5.13;3.30;;;26.60;99.90;;;;;;5043631;28;20417;-74
2022/07/31 11:48:32;;;;;;;4.05;3.75;;;26.80;99.90;;;;;;5040548;28;20159;-75
2022/07/31 11:51:00;;;;;;;3.88;3.13;;;26.90;99.90;;;;;;5022372;28;20462;-73
2022/07/31 11:53:26;;;;;;;4.35;3.50;;;26.80;99.90;;;;;;5048164;28;20025;-73
2022/07/31 11:55:59;;;;;;;5.18;3.42;;;26.80;99.90;;;;;;5042142;28;20029;-75
2022/07/31 11:58:27;;;;;;;4.47;3.67;;;26.90;99.90;;;;;;5045411;28;20120;-75
2022/07/31 12:00:55;;;;;;;4.78;3.88;;;27.00;99.90;;;;;;5046937;28;20032;-75
2022/07/31 12:03:28;;;;;;;4.63;3.58;;;27.20;99.90;;;;;;5047579;28;20807;-76
2022/07/31 12:05:54;;;;;;;4.30;3.42;;;27.20;99.90;;;;;;5045423;28;20036;-77
2022/07/31 12:08:21;;;;;;;3.20;3.00;;;27.30;99.90;;;;;;5053184;28;20378;-76
2022/07/31 12:10:48;;;;;;;3.22;3.00;;;27.30;99.90;;;;;;5047429;28;20067;-75
2022/07/31 12:13:16;;;;;;;3.78;3.30;;;27.30;99.90;;;;;;5038617;28;20655;-76
2022/07/31 12:16:05;;;;;;;4.75;3.50;;;27.40;99.90;;;;;;5040627;28;20466;-75
2022/07/31 12:18:55;;;;;;;4.28;3.90;;;27.40;99.90;;;;;;5050928;28;20014;-74
2022/07/31 12:21:34;;;;;;;5.22;3.65;;;27.50;99.90;;;;;;5038415;28;20064;-77
2022/07/31 12:24:01;;;;;;;4.35;3.95;;;27.50;99.90;;;;;;5040509;28;20037;-76
2022/07/31 12:26:31;;;;;;;5.00;4.57;;;27.40;99.90;;;;;;5047565;28;20033;-76
2022/07/31 12:28:57;;;;;;;4.45;4.05;;;27.20;99.90;;;;;;5041606;28;20079;-77
2022/07/31 12:31:23;;;;;;;5.55;3.95;;;27.00;99.90;;;;;;5044317;28;20033;-76
2022/07/31 12:33:49;;;;;;;6.72;4.10;;;27.00;99.90;;;;;;5051387;28;20025;-75
2022/07/31 12:36:16;;;;;;;5.78;3.97;;;27.10;99.90;;;;;;5037646;28;20832;-76
2022/07/31 12:38:42;;;;;;;5.18;3.97;;;27.20;99.90;;;;;;5043844;28;20051;-76
2022/07/31 12:41:08;;;;;;;4.40;3.88;;;27.20;99.90;;;;;;5047746;28;20046;-76
2022/07/31 12:43:34;;;;;;;5.18;4.57;;;27.20;99.90;;;;;;5047278;28;20017;-76
2022/07/31 12:46:03;;;;;;;4.85;4.05;;;27.20;99.90;;;;;;5041381;28;20068;-76
2022/07/31 12:48:31;;;;;;;4.80;3.78;;;27.30;99.90;;;;;;5040214;28;20060;-75
2022/07/31 12:50:57;;;;;;;4.15;3.70;;;27.40;99.90;;;;;;5040694;28;20637;-75